Hillsdale, Illinois
Current Conditions -  °F | °C
As of 6:15 AM on Friday 28 Nov 2014 (Local Time) from KCWI Reporting Station
Overcast Overcast  
Wind Chill:   Ceiling: 12000
Heat Index: 16°   Visibility: 10mi
Dew Point:   Wind: 14mph
Humidity: 73%   Direction: 150°SSE
Pressure: 30.22"   Gusts: NA
Location:  41.61°N, 90.17°W
Report Text: KCWI 281215Z AUTO 15012KT 10SM OVC120 M09/M13 A3022 RMK AO1
Loading
Personal Weather Stations






























Interactive Weather Map New forecast layout! Learn more

10-Day Weather Forecast

Advertisements
Track Severe Weather on mobile